createdAt,value
2023-07-24T00:01:53.353Z,97.43
2023-07-24T00:04:21.706Z,97.39
2023-07-24T00:06:50.118Z,97.50
2023-07-24T00:09:18.401Z,97.58
2023-07-24T00:11:46.757Z,97.54
2023-07-24T00:14:16.730Z,97.85
2023-07-24T00:16:45.143Z,97.84
2023-07-24T00:19:13.452Z,97.91
2023-07-24T00:21:41.936Z,98.13
2023-07-24T00:24:10.225Z,98.13
2023-07-24T00:26:38.498Z,98.28
2023-07-24T00:29:07.007Z,98.59
2023-07-24T00:31:35.134Z,98.46
2023-07-24T00:34:04.224Z,98.49
2023-07-24T00:36:32.937Z,98.60
2023-07-24T00:39:01.344Z,98.72
2023-07-24T00:41:31.009Z,98.64
2023-07-24T00:43:59.325Z,98.76
2023-07-24T00:46:30.049Z,98.82
2023-07-24T00:48:58.833Z,98.95
2023-07-24T00:51:29.172Z,99.28
2023-07-24T00:54:04.211Z,99.93
2023-07-24T00:56:33.235Z,99.64
2023-07-24T00:59:02.593Z,100.00
2023-07-24T01:01:31.133Z,100.00
2023-07-24T01:03:59.779Z,100.00
2023-07-24T01:06:28.527Z,100.00
2023-07-24T01:08:57.081Z,100.00
2023-07-24T01:11:38.249Z,100.00
2023-07-24T01:14:37.835Z,100.00
2023-07-24T01:17:09.481Z,100.00
2023-07-24T01:19:42.686Z,100.00
2023-07-24T01:22:21.133Z,100.00
2023-07-24T01:25:11.817Z,100.00
2023-07-24T01:27:44.795Z,100.00
2023-07-24T01:30:14.418Z,100.00
2023-07-24T01:32:43.109Z,100.00
2023-07-24T01:35:12.930Z,100.00
2023-07-24T01:37:43.040Z,100.00
2023-07-24T01:40:12.112Z,100.00
2023-07-24T01:42:40.516Z,100.00
2023-07-24T01:45:09.939Z,100.00
2023-07-24T01:47:38.573Z,100.00
2023-07-24T01:50:08.649Z,100.00
2023-07-24T01:52:37.112Z,100.00
2023-07-24T01:55:06.077Z,100.00
2023-07-24T01:57:34.188Z,100.00
2023-07-24T02:00:02.583Z,100.00
2023-07-24T02:02:30.894Z,100.00
2023-07-24T02:04:59.069Z,100.00
2023-07-24T02:07:27.398Z,100.00
2023-07-24T02:09:56.955Z,100.00
2023-07-24T02:12:25.230Z,100.00
2023-07-24T02:14:54.692Z,100.00
2023-07-24T02:17:24.778Z,100.00
2023-07-24T02:19:53.249Z,100.00
2023-07-24T02:22:21.583Z,100.00
2023-07-24T02:24:50.095Z,100.00
2023-07-24T02:27:31.322Z,100.00
2023-07-24T02:29:59.818Z,100.00
2023-07-24T02:32:28.352Z,100.00
2023-07-24T02:34:56.824Z,100.00
2023-07-24T02:37:25.257Z,100.00
2023-07-24T02:39:54.709Z,100.00
2023-07-24T02:42:22.955Z,100.00
2023-07-24T02:44:54.435Z,100.00
2023-07-24T02:47:23.736Z,100.00
2023-07-24T02:49:52.490Z,100.00
2023-07-24T02:52:20.680Z,100.00
2023-07-24T02:54:49.389Z,100.00
2023-07-24T02:57:18.042Z,100.00
2023-07-24T02:59:46.626Z,100.00
2023-07-24T03:02:14.782Z,100.00
2023-07-24T03:04:42.985Z,100.00
2023-07-24T03:07:11.368Z,100.00
2023-07-24T03:09:39.742Z,100.00
2023-07-24T03:12:08.188Z,100.00
2023-07-24T03:14:36.397Z,100.00
2023-07-24T03:17:04.982Z,100.00
2023-07-24T03:19:33.729Z,100.00
2023-07-24T03:22:02.880Z,100.00
2023-07-24T03:24:31.066Z,100.00
2023-07-24T03:26:59.326Z,100.00
2023-07-24T03:29:28.269Z,100.00
2023-07-24T03:31:56.656Z,100.00
2023-07-24T03:34:24.914Z,100.00
2023-07-24T03:36:53.164Z,100.00
2023-07-24T03:39:21.435Z,100.00
2023-07-24T03:41:49.815Z,100.00
2023-07-24T03:44:18.120Z,100.00
2023-07-24T03:46:46.605Z,100.00
2023-07-24T03:49:15.005Z,100.00
2023-07-24T03:51:43.242Z,100.00
2023-07-24T03:54:11.861Z,100.00
2023-07-24T03:56:40.112Z,100.00
2023-07-24T03:59:08.401Z,100.00
2023-07-24T04:01:36.708Z,100.00
2023-07-24T04:04:05.346Z,100.00
2023-07-24T04:06:33.526Z,100.00
2023-07-24T04:09:01.799Z,100.00
2023-07-24T04:11:29.948Z,100.00
2023-07-24T04:13:58.075Z,100.00
2023-07-24T04:16:29.407Z,100.00
2023-07-24T04:18:58.090Z,100.00
2023-07-24T04:21:26.694Z,100.00
2023-07-24T04:23:55.160Z,100.00
2023-07-24T04:26:23.646Z,100.00
2023-07-24T04:28:51.858Z,100.00
2023-07-24T04:31:20.180Z,100.00
2023-07-24T04:33:48.609Z,100.00
2023-07-24T04:36:18.333Z,100.00
2023-07-24T04:38:48.362Z,100.00
2023-07-24T04:41:17.407Z,100.00
2023-07-24T04:43:45.901Z,100.00
2023-07-24T04:46:14.238Z,100.00
2023-07-24T04:48:42.553Z,100.00
2023-07-24T04:51:10.976Z,100.00
2023-07-24T04:53:38.969Z,100.00
2023-07-24T04:56:07.420Z,100.00
2023-07-24T04:58:36.003Z,100.00
2023-07-24T05:01:07.196Z,100.00
2023-07-24T05:03:35.702Z,100.00
2023-07-24T05:06:04.087Z,100.00
2023-07-24T05:08:32.467Z,100.00
2023-07-24T05:11:00.894Z,98.18
2023-07-24T05:13:29.432Z,97.48
2023-07-24T05:15:57.637Z,97.67
2023-07-24T05:18:25.972Z,96.78
2023-07-24T05:20:54.135Z,94.20
2023-07-24T05:23:22.519Z,93.54
2023-07-24T05:25:59.514Z,93.03
2023-07-24T05:28:29.847Z,89.69
2023-07-24T05:31:05.436Z,88.95
2023-07-24T05:33:34.206Z,88.74
2023-07-24T05:36:04.618Z,88.91
2023-07-24T05:38:33.121Z,90.21
2023-07-24T05:41:05.022Z,89.50
2023-07-24T05:43:33.988Z,89.31
2023-07-24T05:46:02.500Z,88.06
2023-07-24T05:48:30.846Z,87.20
2023-07-24T05:50:59.413Z,87.36
2023-07-24T05:53:27.576Z,86.59
2023-07-24T05:56:01.063Z,84.35
2023-07-24T05:58:29.577Z,84.07
2023-07-24T06:00:58.059Z,86.65
2023-07-24T06:03:26.686Z,87.87
2023-07-24T06:05:55.816Z,87.53
2023-07-24T06:08:24.203Z,85.64
2023-07-24T06:10:52.543Z,85.59
2023-07-24T06:13:21.343Z,86.59
2023-07-24T06:15:50.220Z,87.63
2023-07-24T06:18:18.909Z,84.42
2023-07-24T06:20:48.586Z,84.50
2023-07-24T06:23:17.613Z,83.62
2023-07-24T06:25:46.074Z,89.91
2023-07-24T06:28:14.403Z,94.41
2023-07-24T06:30:42.813Z,94.49
2023-07-24T06:33:11.015Z,96.93
2023-07-24T06:35:39.373Z,97.11
2023-07-24T06:38:09.556Z,97.43
2023-07-24T06:40:37.673Z,98.14
2023-07-24T06:43:06.809Z,96.28
2023-07-24T06:45:36.756Z,99.19
2023-07-24T06:48:05.242Z,98.17
2023-07-24T06:50:33.268Z,98.10
2023-07-24T06:53:01.323Z,98.38
2023-07-24T06:55:29.464Z,98.57
2023-07-24T06:57:57.903Z,97.78
2023-07-24T07:00:26.638Z,99.45
2023-07-24T07:02:55.199Z,99.20
2023-07-24T07:05:23.857Z,98.25
2023-07-24T07:07:51.861Z,97.64
2023-07-24T07:10:20.019Z,96.54
2023-07-24T07:12:48.201Z,94.81
2023-07-24T07:15:16.301Z,89.15
2023-07-24T07:17:44.518Z,87.82
2023-07-24T07:20:12.613Z,88.77
2023-07-24T07:22:40.704Z,90.58
2023-07-24T07:25:09.097Z,87.82
2023-07-24T07:27:37.121Z,86.07
2023-07-24T07:30:06.174Z,83.44
2023-07-24T07:32:34.725Z,81.77
2023-07-24T07:35:04.554Z,81.49
2023-07-24T07:37:32.540Z,80.09
2023-07-24T07:40:00.574Z,77.34
2023-07-24T07:42:28.830Z,77.17
2023-07-24T07:44:56.846Z,78.75
2023-07-24T07:47:25.003Z,78.32
2023-07-24T07:49:53.000Z,80.80
2023-07-24T07:56:55.528Z,80.26
2023-07-24T07:59:23.495Z,82.11
2023-07-24T08:01:51.806Z,79.93
2023-07-24T08:04:19.999Z,78.88
2023-07-24T08:06:48.280Z,80.51
2023-07-24T08:09:16.933Z,81.38
2023-07-24T08:11:45.257Z,80.92
2023-07-24T08:14:13.389Z,80.25
2023-07-24T08:16:41.688Z,82.07
2023-07-24T08:19:10.209Z,83.56
2023-07-24T08:21:40.228Z,84.73
2023-07-24T08:24:08.880Z,84.62
2023-07-24T08:26:37.061Z,85.74
2023-07-24T08:38:15.433Z,88.01
2023-07-24T08:40:43.668Z,86.97
2023-07-24T08:43:14.833Z,88.04
2023-07-24T08:45:43.558Z,87.23
2023-07-24T08:48:11.872Z,89.19
2023-07-24T08:50:40.207Z,88.30
2023-07-24T08:53:08.905Z,87.42
2023-07-24T08:55:37.431Z,89.05
2023-07-24T08:58:08.284Z,89.91
2023-07-24T09:00:36.729Z,87.88
2023-07-24T09:03:05.547Z,86.44
2023-07-24T09:05:33.976Z,78.29
2023-07-24T09:12:51.565Z,75.09
2023-07-24T09:15:19.723Z,74.00
2023-07-24T09:17:54.988Z,67.82
2023-07-24T09:23:13.245Z,64.08
2023-07-24T09:25:45.441Z,66.18
2023-07-24T09:32:53.838Z,57.94
2023-07-24T09:35:28.531Z,59.90
2023-07-24T09:38:14.804Z,58.15
2023-07-24T09:40:47.482Z,53.82
2023-07-24T09:43:38.979Z,56.30
2023-07-24T09:46:10.959Z,56.49
2023-07-24T09:48:43.436Z,56.73
2023-07-24T09:51:30.319Z,54.74
2023-07-24T09:54:32.117Z,57.10
2023-07-24T09:57:11.049Z,60.45
2023-07-24T09:59:50.946Z,62.98
2023-07-24T10:02:20.037Z,61.70
2023-07-24T10:04:50.016Z,61.97
2023-07-24T10:07:22.873Z,61.78
2023-07-24T10:09:52.257Z,62.70
2023-07-24T10:12:21.983Z,65.14
2023-07-24T10:14:51.155Z,64.79
2023-07-24T10:17:42.865Z,61.56
2023-07-24T10:20:14.075Z,61.57
2023-07-24T10:22:43.858Z,61.17
2023-07-24T10:25:12.740Z,59.11
2023-07-24T10:27:45.638Z,59.34
2023-07-24T10:30:28.310Z,58.26
2023-07-24T10:37:17.112Z,61.67
2023-07-24T10:44:18.637Z,60.44
2023-07-24T10:46:46.850Z,57.74
2023-07-24T10:49:15.533Z,59.02
2023-07-24T10:51:44.077Z,57.36
2023-07-24T10:54:15.913Z,59.28
2023-07-24T10:56:44.134Z,57.93
2023-07-24T10:59:12.469Z,58.31
2023-07-24T11:01:41.947Z,61.84
2023-07-24T11:04:10.883Z,61.37
2023-07-24T11:06:39.328Z,61.39
2023-07-24T11:09:08.010Z,60.09
2023-07-24T11:11:37.199Z,56.83
2023-07-24T11:14:05.935Z,57.88
2023-07-24T11:16:35.061Z,56.13
2023-07-24T11:19:03.959Z,58.08
2023-07-24T11:21:32.685Z,59.46
2023-07-24T11:24:01.617Z,59.36
2023-07-24T11:26:30.396Z,59.87
2023-07-24T11:28:58.662Z,58.66
2023-07-24T11:31:27.451Z,58.75
2023-07-24T11:33:56.470Z,60.33
2023-07-24T11:36:25.009Z,57.29
2023-07-24T11:38:53.503Z,57.49
2023-07-24T11:41:21.770Z,58.88
2023-07-24T11:43:52.071Z,57.92
2023-07-24T11:46:27.915Z,58.48
2023-07-24T11:48:58.870Z,58.50
2023-07-24T11:51:29.471Z,59.68
2023-07-24T11:54:13.536Z,62.08
2023-07-24T11:56:43.761Z,59.57
2023-07-24T11:59:14.019Z,59.62
2023-07-24T12:01:46.948Z,61.42
2023-07-24T12:04:16.965Z,62.06
2023-07-24T12:06:45.926Z,57.92
2023-07-24T12:09:14.574Z,52.08
2023-07-24T12:11:45.895Z,51.11
2023-07-24T12:18:46.572Z,49.40
2023-07-24T12:21:15.003Z,49.78
2023-07-24T12:23:43.847Z,52.61
2023-07-24T12:26:13.059Z,50.08
2023-07-24T12:28:41.287Z,49.54
2023-07-24T12:31:10.017Z,48.39
2023-07-24T12:33:38.180Z,47.17
2023-07-24T12:36:06.410Z,46.69
2023-07-24T12:38:34.855Z,47.71
2023-07-24T12:41:03.130Z,47.16
2023-07-24T12:43:31.495Z,49.57
2023-07-24T12:46:01.847Z,52.24
2023-07-24T12:48:33.791Z,48.48
2023-07-24T12:51:05.913Z,47.46
2023-07-24T12:53:41.221Z,47.13
2023-07-24T12:56:20.878Z,45.84
2023-07-24T12:58:51.802Z,46.38
2023-07-24T13:01:22.923Z,47.68
2023-07-24T13:03:53.848Z,49.83
2023-07-24T13:06:24.915Z,48.59
2023-07-24T13:08:56.897Z,44.79
2023-07-24T13:15:57.446Z,45.97
2023-07-24T13:18:29.245Z,43.80
2023-07-24T13:21:00.787Z,43.51
2023-07-24T13:23:32.877Z,44.18
2023-07-24T13:26:03.990Z,44.96
2023-07-24T13:28:34.911Z,44.92
2023-07-24T13:31:18.864Z,44.51
2023-07-24T13:33:50.921Z,45.35
2023-07-24T13:36:21.804Z,45.88
2023-07-24T13:38:53.851Z,44.14
2023-07-24T13:41:24.002Z,43.05
2023-07-24T13:43:55.857Z,43.33
2023-07-24T13:53:58.941Z,45.37
2023-07-24T13:56:29.068Z,43.95
2023-07-24T13:58:58.151Z,44.03
2023-07-24T14:01:26.860Z,44.24
2023-07-24T14:03:55.342Z,44.69
2023-07-24T14:06:23.917Z,44.94
2023-07-24T14:08:52.670Z,44.40
2023-07-24T14:11:21.171Z,43.59
2023-07-24T14:13:49.449Z,43.89
2023-07-24T14:16:19.128Z,44.53
2023-07-24T14:18:47.757Z,44.72
2023-07-24T14:21:16.368Z,47.07
2023-07-24T14:23:44.618Z,47.86
2023-07-24T14:26:12.644Z,48.48
2023-07-24T14:28:41.247Z,48.91
2023-07-24T14:31:09.595Z,50.31
2023-07-24T14:33:38.346Z,48.74
2023-07-24T14:36:06.629Z,48.88
2023-07-24T14:38:35.111Z,46.06
2023-07-24T14:41:03.423Z,45.88
2023-07-24T14:43:31.873Z,46.51
2023-07-24T14:46:00.470Z,45.52
2023-07-24T14:48:28.757Z,46.21
2023-07-24T14:50:57.128Z,46.66
2023-07-24T14:53:25.399Z,47.54
2023-07-24T14:55:53.565Z,47.08
2023-07-24T14:58:21.846Z,46.75
2023-07-24T15:00:50.459Z,47.65
2023-07-24T15:03:18.617Z,48.05
2023-07-24T15:05:47.043Z,47.79
2023-07-24T15:08:15.135Z,48.01
2023-07-24T15:10:43.353Z,48.19
2023-07-24T15:13:12.255Z,46.32
2023-07-24T15:15:40.984Z,48.03
2023-07-24T15:18:09.520Z,50.09
2023-07-24T15:20:38.416Z,51.52
2023-07-24T15:23:08.393Z,52.05
2023-07-24T15:25:38.639Z,52.50
2023-07-24T15:28:06.936Z,52.40
2023-07-24T15:30:35.512Z,52.38
2023-07-24T15:33:03.674Z,53.18
2023-07-24T15:35:31.916Z,53.15
2023-07-24T15:38:02.687Z,53.54
2023-07-24T15:40:31.807Z,54.23
2023-07-24T15:43:00.582Z,53.95
2023-07-24T15:45:28.934Z,54.63
2023-07-24T15:47:57.494Z,55.40
2023-07-24T15:50:25.824Z,56.15
2023-07-24T15:52:54.146Z,56.20
2023-07-24T15:55:22.792Z,56.77
2023-07-24T15:57:51.066Z,56.28
2023-07-24T16:00:19.667Z,55.59
2023-07-24T16:02:48.093Z,56.32
2023-07-24T16:05:22.981Z,56.49
2023-07-24T16:07:52.122Z,56.08
2023-07-24T16:10:20.551Z,56.58
2023-07-24T16:12:48.695Z,56.90
2023-07-24T16:15:17.023Z,57.01
2023-07-24T16:20:16.887Z,55.68
2023-07-24T16:22:45.323Z,56.42
2023-07-24T16:25:13.712Z,56.39
2023-07-24T16:27:42.206Z,57.25
2023-07-24T16:30:11.229Z,57.37
2023-07-24T16:35:17.204Z,58.16
2023-07-24T16:37:45.518Z,58.63
2023-07-24T16:40:13.838Z,59.03
2023-07-24T16:42:42.176Z,58.98
2023-07-24T16:45:11.106Z,59.51
2023-07-24T16:47:57.115Z,60.64
2023-07-24T16:50:25.640Z,61.92
2023-07-24T16:52:53.758Z,62.32
2023-07-24T16:55:21.998Z,63.12
2023-07-24T16:57:50.115Z,62.97
2023-07-24T17:00:18.550Z,63.12
2023-07-24T17:02:47.248Z,63.64
2023-07-24T17:05:15.698Z,64.33
2023-07-24T17:07:44.247Z,64.77
2023-07-24T17:10:13.373Z,65.96
2023-07-24T17:12:41.921Z,66.33
2023-07-24T17:15:10.927Z,66.68
2023-07-24T17:17:39.684Z,67.58
2023-07-24T17:20:08.693Z,69.13
2023-07-24T17:22:37.494Z,69.25
2023-07-24T17:25:06.274Z,69.09
2023-07-24T17:27:36.731Z,70.07
2023-07-24T17:30:06.862Z,69.99
2023-07-24T17:32:35.163Z,69.84
2023-07-24T17:35:03.864Z,69.75
2023-07-24T17:37:38.634Z,70.58
2023-07-24T17:40:09.168Z,70.18
2023-07-24T17:42:38.177Z,69.57
2023-07-24T17:45:07.101Z,68.03
2023-07-24T17:47:35.708Z,67.66
2023-07-24T17:50:08.549Z,66.48
2023-07-24T17:52:37.771Z,66.78
2023-07-24T17:55:06.639Z,66.85
2023-07-24T17:57:35.109Z,67.90
2023-07-24T18:00:04.811Z,68.17
2023-07-24T18:02:33.893Z,69.60
2023-07-24T18:05:02.438Z,69.93
2023-07-24T18:07:30.671Z,71.23
2023-07-24T18:09:58.806Z,71.36
2023-07-24T18:12:28.385Z,73.01
2023-07-24T18:14:56.463Z,73.77
2023-07-24T18:17:24.765Z,72.96
2023-07-24T18:19:52.958Z,72.23
2023-07-24T18:22:22.456Z,72.96
2023-07-24T18:24:51.129Z,73.40
2023-07-24T18:27:20.071Z,72.43
2023-07-24T18:29:48.381Z,72.97
2023-07-24T18:32:16.827Z,74.98
2023-07-24T18:34:45.412Z,74.80
2023-07-24T18:37:13.811Z,73.69
2023-07-24T18:39:42.080Z,72.43
2023-07-24T18:42:10.393Z,73.84
2023-07-24T18:44:38.840Z,74.34
2023-07-24T18:47:07.120Z,75.64
2023-07-24T18:49:35.614Z,76.72
2023-07-24T18:52:04.083Z,76.04
2023-07-24T18:54:32.489Z,76.71
2023-07-24T18:57:01.702Z,75.96
2023-07-24T18:59:30.762Z,76.80
2023-07-24T19:01:59.128Z,78.72
2023-07-24T19:04:27.349Z,78.44
2023-07-24T19:06:56.054Z,80.11
2023-07-24T19:09:24.818Z,80.66
2023-07-24T19:11:53.694Z,82.05
2023-07-24T19:14:21.991Z,81.80
2023-07-24T19:16:50.549Z,83.61
2023-07-24T19:19:18.940Z,86.79
2023-07-24T19:21:47.143Z,87.58
2023-07-24T19:24:15.449Z,86.97
2023-07-24T19:26:43.880Z,87.36
2023-07-24T19:29:12.453Z,87.35
2023-07-24T19:31:40.942Z,88.58
2023-07-24T19:34:09.306Z,90.05
2023-07-24T19:36:38.016Z,90.05
2023-07-24T19:39:07.453Z,90.21
2023-07-24T19:41:35.902Z,90.85
2023-07-24T19:44:04.482Z,91.14
2023-07-24T19:46:32.488Z,91.53
2023-07-24T19:49:01.451Z,92.03
2023-07-24T19:51:30.321Z,92.49
2023-07-24T19:53:58.866Z,92.79
2023-07-24T19:56:27.249Z,94.76
2023-07-24T19:58:56.505Z,96.72
2023-07-24T20:01:27.248Z,95.62
2023-07-24T20:03:55.765Z,95.70
2023-07-24T20:06:24.204Z,95.79
2023-07-24T20:08:52.853Z,94.21
2023-07-24T20:11:21.487Z,94.89
2023-07-24T20:13:50.185Z,94.21
2023-07-24T20:16:20.531Z,93.78
2023-07-24T20:18:48.891Z,95.36
2023-07-24T20:21:17.158Z,94.68
2023-07-24T20:23:47.921Z,94.90
2023-07-24T20:26:17.193Z,95.80
2023-07-24T20:28:45.710Z,95.54
2023-07-24T20:31:14.319Z,95.43
2023-07-24T20:33:42.548Z,97.89
2023-07-24T20:36:11.678Z,97.48
2023-07-24T20:38:39.920Z,99.13
2023-07-24T20:41:08.358Z,98.39
2023-07-24T20:43:36.618Z,99.19
2023-07-24T20:46:13.601Z,99.59
2023-07-24T20:48:42.381Z,98.25
2023-07-24T20:51:21.780Z,96.69
2023-07-24T20:53:50.700Z,95.79
2023-07-24T20:56:24.078Z,94.59
2023-07-24T20:58:52.409Z,93.63
2023-07-24T21:01:24.369Z,92.31
2023-07-24T21:03:53.973Z,90.51
2023-07-24T21:06:22.038Z,88.63
2023-07-24T21:08:50.191Z,88.05
2023-07-24T21:11:18.569Z,87.66
2023-07-24T21:13:47.174Z,87.34
2023-07-24T21:16:15.845Z,87.02
2023-07-24T21:18:44.435Z,86.90
2023-07-24T21:21:12.704Z,87.43
2023-07-24T21:23:41.091Z,87.26
2023-07-24T21:26:09.382Z,87.08
2023-07-24T21:28:37.645Z,86.95
2023-07-24T21:31:13.464Z,86.80
2023-07-24T21:33:42.110Z,86.81
2023-07-24T21:36:10.468Z,86.94
2023-07-24T21:38:40.938Z,86.96
2023-07-24T21:41:12.917Z,87.24
2023-07-24T21:43:41.336Z,87.37
2023-07-24T21:46:09.921Z,87.37
2023-07-24T21:48:38.041Z,87.80
2023-07-24T21:51:06.220Z,88.05
2023-07-24T21:53:34.990Z,88.37
2023-07-24T21:56:03.531Z,88.69
2023-07-24T21:58:32.275Z,88.87
2023-07-24T22:01:00.535Z,88.97
2023-07-24T22:03:28.599Z,89.43
2023-07-24T22:05:57.095Z,89.26
2023-07-24T22:08:25.469Z,90.34
2023-07-24T22:10:53.824Z,90.43
2023-07-24T22:13:22.112Z,90.20
2023-07-24T22:15:50.729Z,89.63
2023-07-24T22:18:18.993Z,89.27
2023-07-24T22:20:48.202Z,89.08
2023-07-24T22:23:16.603Z,88.99
2023-07-24T22:25:45.246Z,89.04
2023-07-24T22:28:13.399Z,89.02
2023-07-24T22:30:41.952Z,88.41
2023-07-24T22:33:10.498Z,88.25
2023-07-24T22:35:39.081Z,88.60
2023-07-24T22:38:07.368Z,88.81
2023-07-24T22:40:35.468Z,88.61
2023-07-24T22:43:03.717Z,88.56
2023-07-24T22:45:32.509Z,88.99
2023-07-24T22:48:00.738Z,89.07
2023-07-24T22:50:28.987Z,89.63
2023-07-24T22:52:57.855Z,90.23
2023-07-24T22:55:26.139Z,91.93
2023-07-24T22:57:56.618Z,93.01
2023-07-24T23:00:25.821Z,93.62
2023-07-24T23:02:54.067Z,94.70
2023-07-24T23:05:22.729Z,95.50
2023-07-24T23:07:54.403Z,96.37
2023-07-24T23:10:22.763Z,96.18
2023-07-24T23:12:51.337Z,97.76
2023-07-24T23:15:19.644Z,97.78
2023-07-24T23:17:48.333Z,98.46
2023-07-24T23:20:16.823Z,97.90
2023-07-24T23:22:45.209Z,97.28
2023-07-24T23:25:13.259Z,97.71
2023-07-24T23:27:41.532Z,97.58
2023-07-24T23:30:10.358Z,97.05
2023-07-24T23:32:38.428Z,97.08
2023-07-24T23:35:07.178Z,98.64
2023-07-24T23:37:35.663Z,98.06
2023-07-24T23:40:04.697Z,97.39
2023-07-24T23:42:33.140Z,96.39
2023-07-24T23:45:01.664Z,94.08
2023-07-24T23:47:29.991Z,91.91
2023-07-24T23:49:59.399Z,89.11
2023-07-24T23:52:29.042Z,87.08
2023-07-24T23:54:57.291Z,85.52
2023-07-24T23:57:31.723Z,84.36
